Terminal Aerodrome Forecast
Issued by NWS Wilmington, OH

Home | Current Version | Previous Version | Text Only | Print | Product List | Glossary On
Versions: 1 2 3 4 5 6 7 8 9 10 11 12 13
976
FTUS41 KILN 250533
TAFILN
TAF
KILN 250533Z 2506/2606 22007KT P6SM BKN060
     FM251400 19012G21KT P6SM OVC160
     FM252300 13008KT P6SM BKN080=

USA.gov is the U.S. government's official web portal to all federal, state and local government web resources and services.